This is the latest recevied weather packets stored in our database for station/object EA1AHA-13. If no packets are shown the sender has not sent any weather packets the latest 10 day(s).
| Time | Temp. | Humidity | Pressure | Rain* | Wind** | Luminosity | Snow |
|---|---|---|---|---|---|---|---|
| 1778148701 | 16.67° C | 72% | 1009.2 hPa | 0 mm | - | - | - |
| 1778148077 | 16.67° C | 70% | 1009.6 hPa | 0 mm | - | - | - |
| 1778147501 | 16.11° C | 73% | 1009.5 hPa | 0 mm | - | - | - |
| 1778146877 | 15.56° C | 74% | 1009.5 hPa | 0 mm | - | - | - |
| 1778146300 | 16.11° C | 73% | 1009.4 hPa | 0 mm | - | - | - |
| 1778145677 | 15.56° C | 76% | 1009.6 hPa | 0 mm | - | - | - |
| 1778145101 | 15° C | 77% | 1009.7 hPa | 0 mm | - | - | - |
| 1778144477 | 15° C | 77% | 1009.5 hPa | 0 mm | - | - | - |
| 1778143901 | 15° C | 76% | 1009.4 hPa | 0 mm | - | - | - |
| 1778143277 | 15° C | 78% | 1009.4 hPa | 0 mm | - | - | - |
| 1778142700 | 14.44° C | 80% | 1009.7 hPa | 0 mm | - | - | - |
| 1778142077 | 13.89° C | 82% | 1009.5 hPa | 0 mm | - | - | - |
| 1778141500 | 13.89° C | 82% | 1009.7 hPa | 0 mm | - | - | - |
| 1778140877 | 13.89° C | 80% | 1009.7 hPa | 0 mm | - | - | - |
| 1778140301 | 13.89° C | 79% | 1009.7 hPa | 0 mm | - | - | - |
| 1778139677 | 14.44° C | 81% | 1009.7 hPa | 0 mm | - | - | - |
| 1778139101 | 13.89° C | 82% | 1010 hPa | 0 mm | - | - | - |
| 1778138477 | 13.33° C | 84% | 1010.1 hPa | 0 mm | - | - | - |
| 1778137901 | 12.78° C | 86% | 1010.2 hPa | 0 mm | - | - | - |
| 1778137277 | 11.67° C | 89% | 1010 hPa | 0 mm | - | - | - |
| 1778136701 | 11.67° C | 88% | 1010 hPa | 0 mm | - | - | - |
| 1778136077 | 11.67° C | 89% | 1010.1 hPa | 0 mm | - | - | - |
| 1778135500 | 11.67° C | 90% | 1010.1 hPa | 0 mm | - | - | - |
| 1778134876 | 10.56° C | 92% | 1010.2 hPa | 0 mm | - | - | - |
| 1778134300 | 10.56° C | 94% | 1010 hPa | 0 mm | - | - | - |
* Rain latest hour (hover to see other rain measurements)
** Current wind speed in m/s (hover to see current wind gust speed)